sensor_id;sensor_type;location;lat;lon;timestamp;temperature;humidity
22734;DHT22;11534;51.994;5.692;2023-07-24T00:00:46;18.40;99.90
22734;DHT22;11534;51.994;5.692;2023-07-24T00:03:11;18.40;99.90
22734;DHT22;11534;51.994;5.692;2023-07-24T00:05:37;18.40;99.90
22734;DHT22;11534;51.994;5.692;2023-07-24T00:08:03;18.30;99.90
22734;DHT22;11534;51.994;5.692;2023-07-24T00:10:29;18.40;99.90
22734;DHT22;11534;51.994;5.692;2023-07-24T00:12:54;18.30;99.90
22734;DHT22;11534;51.994;5.692;2023-07-24T00:15:20;18.30;99.90
22734;DHT22;11534;51.994;5.692;2023-07-24T00:17:45;18.40;99.90
22734;DHT22;11534;51.994;5.692;2023-07-24T00:20:11;18.30;99.90
22734;DHT22;11534;51.994;5.692;2023-07-24T00:22:37;18.40;99.90
22734;DHT22;11534;51.994;5.692;2023-07-24T00:25:02;18.40;99.90
22734;DHT22;11534;51.994;5.692;2023-07-24T00:27:28;18.30;99.90
22734;DHT22;11534;51.994;5.692;2023-07-24T00:29:54;18.30;99.90
22734;DHT22;11534;51.994;5.692;2023-07-24T00:32:19;18.30;99.90
22734;DHT22;11534;51.994;5.692;2023-07-24T00:34:45;18.40;99.90
22734;DHT22;11534;51.994;5.692;2023-07-24T00:37:10;18.40;99.90
22734;DHT22;11534;51.994;5.692;2023-07-24T00:39:36;18.40;99.90
22734;DHT22;11534;51.994;5.692;2023-07-24T00:42:02;18.40;99.90
22734;DHT22;11534;51.994;5.692;2023-07-24T00:44:27;18.40;99.90
22734;DHT22;11534;51.994;5.692;2023-07-24T00:46:53;18.40;99.90
22734;DHT22;11534;51.994;5.692;2023-07-24T00:49:19;18.40;99.90
22734;DHT22;11534;51.994;5.692;2023-07-24T00:51:46;18.40;99.90
22734;DHT22;11534;51.994;5.692;2023-07-24T00:54:14;18.40;99.90
22734;DHT22;11534;51.994;5.692;2023-07-24T00:56:42;18.40;99.90
22734;DHT22;11534;51.994;5.692;2023-07-24T00:59:09;18.40;99.90
22734;DHT22;11534;51.994;5.692;2023-07-24T01:01:35;18.40;99.90
22734;DHT22;11534;51.994;5.692;2023-07-24T01:04:03;18.40;99.90
22734;DHT22;11534;51.994;5.692;2023-07-24T01:06:30;18.40;99.90
22734;DHT22;11534;51.994;5.692;2023-07-24T01:08:56;18.40;99.90
22734;DHT22;11534;51.994;5.692;2023-07-24T01:11:27;18.40;99.90
22734;DHT22;11534;51.994;5.692;2023-07-24T01:16:37;18.40;99.90
22734;DHT22;11534;51.994;5.692;2023-07-24T01:19:05;18.40;99.90
22734;DHT22;11534;51.994;5.692;2023-07-24T01:21:45;18.40;99.90
22734;DHT22;11534;51.994;5.692;2023-07-24T01:24:28;18.40;99.90
22734;DHT22;11534;51.994;5.692;2023-07-24T01:26:55;18.40;99.90
22734;DHT22;11534;51.994;5.692;2023-07-24T01:29:21;18.30;99.90
22734;DHT22;11534;51.994;5.692;2023-07-24T01:31:46;18.30;99.90
22734;DHT22;11534;51.994;5.692;2023-07-24T01:34:12;18.40;99.90
22734;DHT22;11534;51.994;5.692;2023-07-24T01:36:38;18.30;99.90
22734;DHT22;11534;51.994;5.692;2023-07-24T01:39:03;18.30;99.90
22734;DHT22;11534;51.994;5.692;2023-07-24T01:41:29;18.30;99.90
22734;DHT22;11534;51.994;5.692;2023-07-24T01:43:59;18.30;99.90
22734;DHT22;11534;51.994;5.692;2023-07-24T01:46:24;18.30;99.90
22734;DHT22;11534;51.994;5.692;2023-07-24T01:48:50;18.30;99.90
22734;DHT22;11534;51.994;5.692;2023-07-24T01:51:17;18.20;99.90
22734;DHT22;11534;51.994;5.692;2023-07-24T01:53:43;18.20;99.90
22734;DHT22;11534;51.994;5.692;2023-07-24T01:56:09;18.20;99.90
22734;DHT22;11534;51.994;5.692;2023-07-24T01:58:34;18.20;99.90
22734;DHT22;11534;51.994;5.692;2023-07-24T02:01:00;18.20;99.90
22734;DHT22;11534;51.994;5.692;2023-07-24T02:03:25;18.20;99.90
22734;DHT22;11534;51.994;5.692;2023-07-24T02:05:51;18.20;99.90
22734;DHT22;11534;51.994;5.692;2023-07-24T02:08:17;18.20;99.90
22734;DHT22;11534;51.994;5.692;2023-07-24T02:10:42;18.10;99.90
22734;DHT22;11534;51.994;5.692;2023-07-24T02:13:08;18.10;99.90
22734;DHT22;11534;51.994;5.692;2023-07-24T02:15:35;18.10;99.90
22734;DHT22;11534;51.994;5.692;2023-07-24T02:18:01;18.10;99.90
22734;DHT22;11534;51.994;5.692;2023-07-24T02:20:27;18.10;99.90
22734;DHT22;11534;51.994;5.692;2023-07-24T02:22:52;18.10;99.90
22734;DHT22;11534;51.994;5.692;2023-07-24T02:25:18;18.10;99.90
22734;DHT22;11534;51.994;5.692;2023-07-24T02:27:43;18.10;99.90
22734;DHT22;11534;51.994;5.692;2023-07-24T02:30:09;18.10;99.90
22734;DHT22;11534;51.994;5.692;2023-07-24T02:32:35;18.10;99.90
22734;DHT22;11534;51.994;5.692;2023-07-24T02:35:01;18.20;99.90
22734;DHT22;11534;51.994;5.692;2023-07-24T02:37:26;18.10;99.90
22734;DHT22;11534;51.994;5.692;2023-07-24T02:39:52;18.10;99.90
22734;DHT22;11534;51.994;5.692;2023-07-24T02:42:18;18.10;99.90
22734;DHT22;11534;51.994;5.692;2023-07-24T02:44:44;18.20;99.90
22734;DHT22;11534;51.994;5.692;2023-07-24T02:47:09;18.10;99.90
22734;DHT22;11534;51.994;5.692;2023-07-24T02:49:35;18.10;99.90
22734;DHT22;11534;51.994;5.692;2023-07-24T02:52:01;18.10;99.90
22734;DHT22;11534;51.994;5.692;2023-07-24T02:54:26;18.10;99.90
22734;DHT22;11534;51.994;5.692;2023-07-24T02:56:52;18.20;99.90
22734;DHT22;11534;51.994;5.692;2023-07-24T02:59:19;18.10;99.90
22734;DHT22;11534;51.994;5.692;2023-07-24T03:01:45;18.10;99.90
22734;DHT22;11534;51.994;5.692;2023-07-24T03:04:11;18.10;99.90
22734;DHT22;11534;51.994;5.692;2023-07-24T03:06:38;18.10;99.90
22734;DHT22;11534;51.994;5.692;2023-07-24T03:09:04;18.10;99.90
22734;DHT22;11534;51.994;5.692;2023-07-24T03:11:30;18.10;99.90
22734;DHT22;11534;51.994;5.692;2023-07-24T03:13:55;18.10;99.90
22734;DHT22;11534;51.994;5.692;2023-07-24T03:16:21;18.10;99.90
22734;DHT22;11534;51.994;5.692;2023-07-24T03:18:46;18.10;99.90
22734;DHT22;11534;51.994;5.692;2023-07-24T03:21:12;18.10;99.90
22734;DHT22;11534;51.994;5.692;2023-07-24T03:23:38;18.10;99.90
22734;DHT22;11534;51.994;5.692;2023-07-24T03:26:03;18.10;99.90
22734;DHT22;11534;51.994;5.692;2023-07-24T03:28:29;18.10;99.90
22734;DHT22;11534;51.994;5.692;2023-07-24T03:30:54;18.10;99.90
22734;DHT22;11534;51.994;5.692;2023-07-24T03:33:20;18.10;99.90
22734;DHT22;11534;51.994;5.692;2023-07-24T03:35:46;18.10;99.90
22734;DHT22;11534;51.994;5.692;2023-07-24T03:38:12;18.10;99.90
22734;DHT22;11534;51.994;5.692;2023-07-24T03:40:37;18.10;99.90
22734;DHT22;11534;51.994;5.692;2023-07-24T03:43:03;18.10;99.90
22734;DHT22;11534;51.994;5.692;2023-07-24T03:45:29;18.10;99.90
22734;DHT22;11534;51.994;5.692;2023-07-24T03:47:54;18.10;99.90
22734;DHT22;11534;51.994;5.692;2023-07-24T03:50:20;18.10;99.90
22734;DHT22;11534;51.994;5.692;2023-07-24T03:52:46;18.10;99.90
22734;DHT22;11534;51.994;5.692;2023-07-24T03:55:11;18.10;99.90
22734;DHT22;11534;51.994;5.692;2023-07-24T03:57:37;18.10;99.90
22734;DHT22;11534;51.994;5.692;2023-07-24T04:00:03;18.10;99.90
22734;DHT22;11534;51.994;5.692;2023-07-24T04:02:29;18.10;99.90
22734;DHT22;11534;51.994;5.692;2023-07-24T04:04:55;18.10;99.90
22734;DHT22;11534;51.994;5.692;2023-07-24T04:07:20;18.10;99.90
22734;DHT22;11534;51.994;5.692;2023-07-24T04:09:46;18.10;99.90
22734;DHT22;11534;51.994;5.692;2023-07-24T04:12:12;18.10;99.90
22734;DHT22;11534;51.994;5.692;2023-07-24T04:14:37;18.00;99.90
22734;DHT22;11534;51.994;5.692;2023-07-24T04:17:03;18.00;99.90
22734;DHT22;11534;51.994;5.692;2023-07-24T04:19:29;18.00;99.90
22734;DHT22;11534;51.994;5.692;2023-07-24T04:21:54;18.00;99.90
22734;DHT22;11534;51.994;5.692;2023-07-24T04:24:20;18.00;99.90
22734;DHT22;11534;51.994;5.692;2023-07-24T04:26:45;18.00;99.90
22734;DHT22;11534;51.994;5.692;2023-07-24T04:29:11;18.00;99.90
22734;DHT22;11534;51.994;5.692;2023-07-24T04:31:37;17.90;99.90
22734;DHT22;11534;51.994;5.692;2023-07-24T04:34:02;17.90;99.90
22734;DHT22;11534;51.994;5.692;2023-07-24T04:36:28;17.90;99.90
22734;DHT22;11534;51.994;5.692;2023-07-24T04:38:54;17.90;99.90
22734;DHT22;11534;51.994;5.692;2023-07-24T04:41:19;18.00;99.90
22734;DHT22;11534;51.994;5.692;2023-07-24T04:43:45;17.90;99.90
22734;DHT22;11534;51.994;5.692;2023-07-24T04:46:10;17.90;99.90
22734;DHT22;11534;51.994;5.692;2023-07-24T04:48:36;17.90;99.90
22734;DHT22;11534;51.994;5.692;2023-07-24T04:51:02;17.90;99.90
22734;DHT22;11534;51.994;5.692;2023-07-24T04:53:27;17.90;99.90
22734;DHT22;11534;51.994;5.692;2023-07-24T04:55:53;17.90;99.90
22734;DHT22;11534;51.994;5.692;2023-07-24T04:58:18;17.90;99.90
22734;DHT22;11534;51.994;5.692;2023-07-24T05:00:44;18.00;99.90
22734;DHT22;11534;51.994;5.692;2023-07-24T05:03:10;17.90;99.90
22734;DHT22;11534;51.994;5.692;2023-07-24T05:05:37;17.90;99.90
22734;DHT22;11534;51.994;5.692;2023-07-24T05:08:03;17.90;99.90
22734;DHT22;11534;51.994;5.692;2023-07-24T05:10:29;17.90;99.90
22734;DHT22;11534;51.994;5.692;2023-07-24T05:12:54;17.90;99.90
22734;DHT22;11534;51.994;5.692;2023-07-24T05:15:22;17.90;99.90
22734;DHT22;11534;51.994;5.692;2023-07-24T05:17:48;17.90;99.90
22734;DHT22;11534;51.994;5.692;2023-07-24T05:20:13;17.80;99.90
22734;DHT22;11534;51.994;5.692;2023-07-24T05:22:39;17.80;99.90
22734;DHT22;11534;51.994;5.692;2023-07-24T05:25:05;17.80;99.90
22734;DHT22;11534;51.994;5.692;2023-07-24T05:27:31;17.80;99.90
22734;DHT22;11534;51.994;5.692;2023-07-24T05:29:56;17.90;99.90
22734;DHT22;11534;51.994;5.692;2023-07-24T05:32:22;17.90;99.90
22734;DHT22;11534;51.994;5.692;2023-07-24T05:34:48;17.90;99.90
22734;DHT22;11534;51.994;5.692;2023-07-24T05:37:13;17.90;99.90
22734;DHT22;11534;51.994;5.692;2023-07-24T05:39:39;17.90;99.90
22734;DHT22;11534;51.994;5.692;2023-07-24T05:42:04;17.90;99.90
22734;DHT22;11534;51.994;5.692;2023-07-24T05:44:30;17.90;99.90
22734;DHT22;11534;51.994;5.692;2023-07-24T05:46:56;17.90;99.90
22734;DHT22;11534;51.994;5.692;2023-07-24T05:49:21;17.90;99.90
22734;DHT22;11534;51.994;5.692;2023-07-24T05:51:47;17.90;99.90
22734;DHT22;11534;51.994;5.692;2023-07-24T05:54:13;17.90;99.90
22734;DHT22;11534;51.994;5.692;2023-07-24T05:56:38;17.90;99.90
22734;DHT22;11534;51.994;5.692;2023-07-24T05:59:04;17.90;99.90
22734;DHT22;11534;51.994;5.692;2023-07-24T06:01:30;17.90;99.90
22734;DHT22;11534;51.994;5.692;2023-07-24T06:03:55;17.90;99.90
22734;DHT22;11534;51.994;5.692;2023-07-24T06:06:21;17.90;99.90
22734;DHT22;11534;51.994;5.692;2023-07-24T06:08:46;17.90;99.90
22734;DHT22;11534;51.994;5.692;2023-07-24T06:11:13;17.90;99.90
22734;DHT22;11534;51.994;5.692;2023-07-24T06:13:38;17.90;99.90
22734;DHT22;11534;51.994;5.692;2023-07-24T06:16:04;17.90;99.90
22734;DHT22;11534;51.994;5.692;2023-07-24T06:18:29;17.90;99.90
22734;DHT22;11534;51.994;5.692;2023-07-24T06:20:55;18.00;99.90
22734;DHT22;11534;51.994;5.692;2023-07-24T06:23:21;18.00;99.90
22734;DHT22;11534;51.994;5.692;2023-07-24T06:25:46;18.00;99.90
22734;DHT22;11534;51.994;5.692;2023-07-24T06:28:12;18.00;99.90
22734;DHT22;11534;51.994;5.692;2023-07-24T06:30:38;18.10;99.90
22734;DHT22;11534;51.994;5.692;2023-07-24T06:33:04;18.10;99.90
22734;DHT22;11534;51.994;5.692;2023-07-24T06:35:30;18.30;99.90
22734;DHT22;11534;51.994;5.692;2023-07-24T06:37:55;18.40;99.90
22734;DHT22;11534;51.994;5.692;2023-07-24T06:40:21;18.40;99.90
22734;DHT22;11534;51.994;5.692;2023-07-24T06:42:46;18.50;99.90
22734;DHT22;11534;51.994;5.692;2023-07-24T06:45:12;18.60;99.90
22734;DHT22;11534;51.994;5.692;2023-07-24T06:47:38;18.50;99.90
22734;DHT22;11534;51.994;5.692;2023-07-24T06:50:04;18.50;99.90
22734;DHT22;11534;51.994;5.692;2023-07-24T06:52:31;18.50;99.90
22734;DHT22;11534;51.994;5.692;2023-07-24T06:54:57;18.40;99.90
22734;DHT22;11534;51.994;5.692;2023-07-24T06:57:23;18.40;99.90
22734;DHT22;11534;51.994;5.692;2023-07-24T06:59:50;18.50;99.90
22734;DHT22;11534;51.994;5.692;2023-07-24T07:02:15;18.60;99.90
22734;DHT22;11534;51.994;5.692;2023-07-24T07:04:41;18.50;99.90
22734;DHT22;11534;51.994;5.692;2023-07-24T07:07:07;18.50;99.90
22734;DHT22;11534;51.994;5.692;2023-07-24T07:09:32;18.50;99.90
22734;DHT22;11534;51.994;5.692;2023-07-24T07:11:58;18.50;99.90
22734;DHT22;11534;51.994;5.692;2023-07-24T07:14:24;18.60;99.90
22734;DHT22;11534;51.994;5.692;2023-07-24T07:16:49;18.70;99.90
22734;DHT22;11534;51.994;5.692;2023-07-24T07:19:15;18.80;99.90
22734;DHT22;11534;51.994;5.692;2023-07-24T07:21:41;18.80;99.90
22734;DHT22;11534;51.994;5.692;2023-07-24T07:24:06;18.80;99.90
22734;DHT22;11534;51.994;5.692;2023-07-24T07:26:32;18.90;99.90
22734;DHT22;11534;51.994;5.692;2023-07-24T07:28:58;19.00;99.90
22734;DHT22;11534;51.994;5.692;2023-07-24T07:31:25;19.10;99.90
22734;DHT22;11534;51.994;5.692;2023-07-24T07:33:50;19.20;99.90
22734;DHT22;11534;51.994;5.692;2023-07-24T07:36:16;19.20;99.90
22734;DHT22;11534;51.994;5.692;2023-07-24T07:38:43;19.20;99.90
22734;DHT22;11534;51.994;5.692;2023-07-24T07:41:08;19.20;99.90
22734;DHT22;11534;51.994;5.692;2023-07-24T07:43:34;19.10;99.90
22734;DHT22;11534;51.994;5.692;2023-07-24T07:46:02;19.20;99.90
22734;DHT22;11534;51.994;5.692;2023-07-24T07:48:27;19.30;99.90
22734;DHT22;11534;51.994;5.692;2023-07-24T07:50:53;19.30;99.90
22734;DHT22;11534;51.994;5.692;2023-07-24T07:53:19;19.20;99.90
22734;DHT22;11534;51.994;5.692;2023-07-24T07:55:45;19.10;99.90
22734;DHT22;11534;51.994;5.692;2023-07-24T07:58:10;19.00;99.90
22734;DHT22;11534;51.994;5.692;2023-07-24T08:00:36;18.90;99.90
22734;DHT22;11534;51.994;5.692;2023-07-24T08:03:05;18.90;99.90
22734;DHT22;11534;51.994;5.692;2023-07-24T08:05:30;19.00;99.90
22734;DHT22;11534;51.994;5.692;2023-07-24T08:07:57;18.90;99.90
22734;DHT22;11534;51.994;5.692;2023-07-24T08:10:23;19.10;99.90
22734;DHT22;11534;51.994;5.692;2023-07-24T08:12:49;19.20;99.90
22734;DHT22;11534;51.994;5.692;2023-07-24T08:15:15;19.40;99.90
22734;DHT22;11534;51.994;5.692;2023-07-24T08:17:40;19.60;99.90
22734;DHT22;11534;51.994;5.692;2023-07-24T08:20:06;19.70;99.90
22734;DHT22;11534;51.994;5.692;2023-07-24T08:22:32;19.70;99.90
22734;DHT22;11534;51.994;5.692;2023-07-24T08:24:58;19.60;99.90
22734;DHT22;11534;51.994;5.692;2023-07-24T08:27:23;19.70;99.90
22734;DHT22;11534;51.994;5.692;2023-07-24T08:29:52;19.60;99.90
22734;DHT22;11534;51.994;5.692;2023-07-24T08:32:20;19.60;99.90
22734;DHT22;11534;51.994;5.692;2023-07-24T08:34:46;19.60;99.90
22734;DHT22;11534;51.994;5.692;2023-07-24T08:37:12;19.60;99.90
22734;DHT22;11534;51.994;5.692;2023-07-24T08:39:37;19.60;99.90
22734;DHT22;11534;51.994;5.692;2023-07-24T08:42:11;19.60;99.90
22734;DHT22;11534;51.994;5.692;2023-07-24T08:44:37;19.60;99.90
22734;DHT22;11534;51.994;5.692;2023-07-24T08:47:03;19.60;99.90
22734;DHT22;11534;51.994;5.692;2023-07-24T08:49:29;19.70;99.90
22734;DHT22;11534;51.994;5.692;2023-07-24T08:51:56;19.90;99.90
22734;DHT22;11534;51.994;5.692;2023-07-24T08:54:23;19.90;99.90
22734;DHT22;11534;51.994;5.692;2023-07-24T08:56:50;20.00;99.90
22734;DHT22;11534;51.994;5.692;2023-07-24T08:59:17;20.00;99.90
22734;DHT22;11534;51.994;5.692;2023-07-24T09:01:43;20.00;99.90
22734;DHT22;11534;51.994;5.692;2023-07-24T09:04:09;20.00;99.90
22734;DHT22;11534;51.994;5.692;2023-07-24T09:06:35;20.10;99.90
22734;DHT22;11534;51.994;5.692;2023-07-24T09:09:01;20.20;99.90
22734;DHT22;11534;51.994;5.692;2023-07-24T09:11:26;20.30;99.90
22734;DHT22;11534;51.994;5.692;2023-07-24T09:13:52;20.30;99.90
22734;DHT22;11534;51.994;5.692;2023-07-24T09:16:25;20.20;99.90
22734;DHT22;11534;51.994;5.692;2023-07-24T09:18:52;20.00;99.90
22734;DHT22;11534;51.994;5.692;2023-07-24T09:21:31;20.00;99.90
22734;DHT22;11534;51.994;5.692;2023-07-24T09:23:57;20.00;99.90
22734;DHT22;11534;51.994;5.692;2023-07-24T09:26:23;20.00;99.90
22734;DHT22;11534;51.994;5.692;2023-07-24T09:28:53;20.20;99.90
22734;DHT22;11534;51.994;5.692;2023-07-24T09:31:19;20.30;99.90
22734;DHT22;11534;51.994;5.692;2023-07-24T09:33:45;20.50;99.90
22734;DHT22;11534;51.994;5.692;2023-07-24T09:36:11;20.60;99.90
22734;DHT22;11534;51.994;5.692;2023-07-24T09:38:39;20.70;99.90
22734;DHT22;11534;51.994;5.692;2023-07-24T09:41:05;20.70;99.90
22734;DHT22;11534;51.994;5.692;2023-07-24T09:43:32;20.80;99.90
22734;DHT22;11534;51.994;5.692;2023-07-24T09:45:58;20.80;99.90
22734;DHT22;11534;51.994;5.692;2023-07-24T09:48:25;20.70;99.90
22734;DHT22;11534;51.994;5.692;2023-07-24T09:50:57;20.60;99.90
22734;DHT22;11534;51.994;5.692;2023-07-24T09:54:25;20.60;99.90
22734;DHT22;11534;51.994;5.692;2023-07-24T09:56:18;20.40;99.90
22734;DHT22;11534;51.994;5.692;2023-07-24T09:58:45;20.30;99.90
22734;DHT22;11534;51.994;5.692;2023-07-24T10:01:11;20.10;99.90
22734;DHT22;11534;51.994;5.692;2023-07-24T10:03:46;20.10;99.90
22734;DHT22;11534;51.994;5.692;2023-07-24T10:06:12;20.20;99.90
22734;DHT22;11534;51.994;5.692;2023-07-24T10:08:40;20.30;99.90
22734;DHT22;11534;51.994;5.692;2023-07-24T10:11:10;20.60;99.90
22734;DHT22;11534;51.994;5.692;2023-07-24T10:13:37;20.80;99.90
22734;DHT22;11534;51.994;5.692;2023-07-24T10:16:04;20.90;99.90
22734;DHT22;11534;51.994;5.692;2023-07-24T10:18:33;20.80;99.90
22734;DHT22;11534;51.994;5.692;2023-07-24T10:21:07;20.80;99.90
22734;DHT22;11534;51.994;5.692;2023-07-24T10:23:37;20.70;99.90
22734;DHT22;11534;51.994;5.692;2023-07-24T10:26:06;20.60;99.90
22734;DHT22;11534;51.994;5.692;2023-07-24T10:28:36;20.60;99.90
22734;DHT22;11534;51.994;5.692;2023-07-24T10:31:19;20.60;99.90
22734;DHT22;11534;51.994;5.692;2023-07-24T10:33:46;20.50;99.90
22734;DHT22;11534;51.994;5.692;2023-07-24T10:36:11;20.50;99.90
22734;DHT22;11534;51.994;5.692;2023-07-24T10:38:43;20.70;99.90
22734;DHT22;11534;51.994;5.692;2023-07-24T10:41:09;20.90;99.90
22734;DHT22;11534;51.994;5.692;2023-07-24T10:43:50;20.80;99.90
22734;DHT22;11534;51.994;5.692;2023-07-24T10:46:17;20.90;99.90
22734;DHT22;11534;51.994;5.692;2023-07-24T10:48:46;20.90;99.90
22734;DHT22;11534;51.994;5.692;2023-07-24T10:51:13;20.90;99.90
22734;DHT22;11534;51.994;5.692;2023-07-24T10:53:45;20.80;99.90
22734;DHT22;11534;51.994;5.692;2023-07-24T10:56:11;20.80;99.90
22734;DHT22;11534;51.994;5.692;2023-07-24T10:58:37;20.70;99.90
22734;DHT22;11534;51.994;5.692;2023-07-24T11:01:06;20.60;99.90
22734;DHT22;11534;51.994;5.692;2023-07-24T11:03:35;20.50;99.90
22734;DHT22;11534;51.994;5.692;2023-07-24T11:06:02;20.60;99.90
22734;DHT22;11534;51.994;5.692;2023-07-24T11:08:28;20.70;99.90
22734;DHT22;11534;51.994;5.692;2023-07-24T11:10:58;20.90;99.90
22734;DHT22;11534;51.994;5.692;2023-07-24T11:13:28;21.30;99.90
22734;DHT22;11534;51.994;5.692;2023-07-24T11:15:54;21.60;99.90
22734;DHT22;11534;51.994;5.692;2023-07-24T11:18:21;21.70;99.90
22734;DHT22;11534;51.994;5.692;2023-07-24T11:20:52;21.80;99.90
22734;DHT22;11534;51.994;5.692;2023-07-24T11:23:18;21.70;99.90
22734;DHT22;11534;51.994;5.692;2023-07-24T11:25:45;21.50;99.90
22734;DHT22;11534;51.994;5.692;2023-07-24T11:28:12;21.30;99.90
22734;DHT22;11534;51.994;5.692;2023-07-24T11:30:39;21.20;99.90
22734;DHT22;11534;51.994;5.692;2023-07-24T11:33:10;21.10;99.90
22734;DHT22;11534;51.994;5.692;2023-07-24T11:35:36;21.10;99.90
22734;DHT22;11534;51.994;5.692;2023-07-24T11:38:04;21.10;99.90
22734;DHT22;11534;51.994;5.692;2023-07-24T11:40:38;21.10;99.90
22734;DHT22;11534;51.994;5.692;2023-07-24T11:43:04;21.20;99.90
22734;DHT22;11534;51.994;5.692;2023-07-24T11:45:30;21.50;99.90
22734;DHT22;11534;51.994;5.692;2023-07-24T11:47:56;21.70;99.90
22734;DHT22;11534;51.994;5.692;2023-07-24T11:50:22;21.50;99.90
22734;DHT22;11534;51.994;5.692;2023-07-24T11:52:50;21.40;99.90
22734;DHT22;11534;51.994;5.692;2023-07-24T11:55:18;21.30;99.90
22734;DHT22;11534;51.994;5.692;2023-07-24T11:57:54;21.30;99.90
22734;DHT22;11534;51.994;5.692;2023-07-24T12:00:22;21.20;99.90
22734;DHT22;11534;51.994;5.692;2023-07-24T12:02:48;21.10;99.90
22734;DHT22;11534;51.994;5.692;2023-07-24T12:05:14;21.10;99.90
22734;DHT22;11534;51.994;5.692;2023-07-24T12:07:42;21.20;99.90
22734;DHT22;11534;51.994;5.692;2023-07-24T12:10:09;21.30;99.90
22734;DHT22;11534;51.994;5.692;2023-07-24T12:15:04;21.60;99.90
22734;DHT22;11534;51.994;5.692;2023-07-24T12:17:30;21.50;99.90
22734;DHT22;11534;51.994;5.692;2023-07-24T12:19:56;21.40;99.90
22734;DHT22;11534;51.994;5.692;2023-07-24T12:22:21;21.20;99.90
22734;DHT22;11534;51.994;5.692;2023-07-24T12:24:47;21.20;99.90
22734;DHT22;11534;51.994;5.692;2023-07-24T12:27:13;21.00;99.90
22734;DHT22;11534;51.994;5.692;2023-07-24T12:29:38;20.80;99.90
22734;DHT22;11534;51.994;5.692;2023-07-24T12:32:04;20.90;99.90
22734;DHT22;11534;51.994;5.692;2023-07-24T12:34:30;21.20;99.90
22734;DHT22;11534;51.994;5.692;2023-07-24T12:36:56;21.30;99.90
22734;DHT22;11534;51.994;5.692;2023-07-24T12:39:21;21.30;99.90
22734;DHT22;11534;51.994;5.692;2023-07-24T12:41:47;21.40;99.90
22734;DHT22;11534;51.994;5.692;2023-07-24T12:44:13;21.40;99.90
22734;DHT22;11534;51.994;5.692;2023-07-24T12:46:38;21.40;99.90
22734;DHT22;11534;51.994;5.692;2023-07-24T12:49:04;21.40;99.90
22734;DHT22;11534;51.994;5.692;2023-07-24T12:51:29;21.90;99.90
22734;DHT22;11534;51.994;5.692;2023-07-24T12:53:55;22.30;99.90
22734;DHT22;11534;51.994;5.692;2023-07-24T12:56:21;22.70;99.90
22734;DHT22;11534;51.994;5.692;2023-07-24T12:58:46;23.00;99.90
22734;DHT22;11534;51.994;5.692;2023-07-24T13:01:12;23.50;99.90
22734;DHT22;11534;51.994;5.692;2023-07-24T13:03:38;24.10;99.90
22734;DHT22;11534;51.994;5.692;2023-07-24T13:06:03;24.50;99.90
22734;DHT22;11534;51.994;5.692;2023-07-24T13:08:29;25.00;99.90
22734;DHT22;11534;51.994;5.692;2023-07-24T13:10:54;25.30;99.90
22734;DHT22;11534;51.994;5.692;2023-07-24T13:13:20;25.20;99.90
22734;DHT22;11534;51.994;5.692;2023-07-24T13:15:46;25.00;99.90
22734;DHT22;11534;51.994;5.692;2023-07-24T13:18:11;24.90;99.90
22734;DHT22;11534;51.994;5.692;2023-07-24T13:20:40;24.70;99.90
22734;DHT22;11534;51.994;5.692;2023-07-24T13:23:06;24.40;99.90
22734;DHT22;11534;51.994;5.692;2023-07-24T13:25:31;24.50;99.90
22734;DHT22;11534;51.994;5.692;2023-07-24T13:27:57;24.70;99.90
22734;DHT22;11534;51.994;5.692;2023-07-24T13:30:22;25.10;99.90
22734;DHT22;11534;51.994;5.692;2023-07-24T13:32:48;25.00;99.90
22734;DHT22;11534;51.994;5.692;2023-07-24T13:35:14;25.00;99.90
22734;DHT22;11534;51.994;5.692;2023-07-24T13:37:40;25.30;99.90
22734;DHT22;11534;51.994;5.692;2023-07-24T13:40:07;25.50;99.90
22734;DHT22;11534;51.994;5.692;2023-07-24T13:42:32;25.80;99.90
22734;DHT22;11534;51.994;5.692;2023-07-24T13:44:58;26.00;99.90
22734;DHT22;11534;51.994;5.692;2023-07-24T13:47:24;26.20;99.90
22734;DHT22;11534;51.994;5.692;2023-07-24T13:49:49;26.40;99.90
22734;DHT22;11534;51.994;5.692;2023-07-24T13:52:15;26.20;99.90
22734;DHT22;11534;51.994;5.692;2023-07-24T13:54:41;26.30;99.90
22734;DHT22;11534;51.994;5.692;2023-07-24T13:57:06;26.30;99.90
22734;DHT22;11534;51.994;5.692;2023-07-24T13:59:36;26.20;99.90
22734;DHT22;11534;51.994;5.692;2023-07-24T14:02:03;25.30;99.90
22734;DHT22;11534;51.994;5.692;2023-07-24T14:04:29;24.90;99.90
22734;DHT22;11534;51.994;5.692;2023-07-24T14:06:55;24.50;99.90
22734;DHT22;11534;51.994;5.692;2023-07-24T14:09:20;24.20;99.90
22734;DHT22;11534;51.994;5.692;2023-07-24T14:11:46;23.90;99.90
22734;DHT22;11534;51.994;5.692;2023-07-24T14:14:11;23.70;99.90
22734;DHT22;11534;51.994;5.692;2023-07-24T14:16:37;23.40;99.90
22734;DHT22;11534;51.994;5.692;2023-07-24T14:19:03;23.20;99.90
22734;DHT22;11534;51.994;5.692;2023-07-24T14:21:28;23.30;99.90
22734;DHT22;11534;51.994;5.692;2023-07-24T14:23:54;23.90;99.90
22734;DHT22;11534;51.994;5.692;2023-07-24T14:26:19;24.30;99.90
22734;DHT22;11534;51.994;5.692;2023-07-24T14:28:45;24.40;99.90
22734;DHT22;11534;51.994;5.692;2023-07-24T14:31:11;24.20;99.90
22734;DHT22;11534;51.994;5.692;2023-07-24T14:33:36;23.90;99.90
22734;DHT22;11534;51.994;5.692;2023-07-24T14:36:02;23.60;99.90
22734;DHT22;11534;51.994;5.692;2023-07-24T14:38:28;23.40;99.90
22734;DHT22;11534;51.994;5.692;2023-07-24T14:40:53;23.10;99.90
22734;DHT22;11534;51.994;5.692;2023-07-24T14:43:19;22.80;99.90
22734;DHT22;11534;51.994;5.692;2023-07-24T14:45:45;22.60;99.90
22734;DHT22;11534;51.994;5.692;2023-07-24T14:48:10;22.40;99.90
22734;DHT22;11534;51.994;5.692;2023-07-24T14:50:39;22.40;99.90
22734;DHT22;11534;51.994;5.692;2023-07-24T14:53:04;22.30;99.90
22734;DHT22;11534;51.994;5.692;2023-07-24T14:55:30;22.50;99.90
22734;DHT22;11534;51.994;5.692;2023-07-24T14:57:56;22.60;99.90
22734;DHT22;11534;51.994;5.692;2023-07-24T15:00:21;22.50;99.90
22734;DHT22;11534;51.994;5.692;2023-07-24T15:02:47;22.20;99.90
22734;DHT22;11534;51.994;5.692;2023-07-24T15:05:13;22.00;99.90
22734;DHT22;11534;51.994;5.692;2023-07-24T15:07:38;21.80;99.90
22734;DHT22;11534;51.994;5.692;2023-07-24T15:10:04;21.70;99.90
22734;DHT22;11534;51.994;5.692;2023-07-24T15:12:30;21.70;99.90
22734;DHT22;11534;51.994;5.692;2023-07-24T15:14:56;21.60;99.90
22734;DHT22;11534;51.994;5.692;2023-07-24T15:17:22;21.50;99.90
22734;DHT22;11534;51.994;5.692;2023-07-24T15:19:47;21.50;99.90
22734;DHT22;11534;51.994;5.692;2023-07-24T15:22:13;21.40;99.90
22734;DHT22;11534;51.994;5.692;2023-07-24T15:24:40;21.40;99.90
22734;DHT22;11534;51.994;5.692;2023-07-24T15:27:06;21.50;99.90
22734;DHT22;11534;51.994;5.692;2023-07-24T15:29:37;21.60;99.90